createdAt,value
2018-05-08T00:01:22.134Z,14.60
2018-05-08T00:03:51.530Z,14.40
2018-05-08T00:06:19.991Z,14.40
2018-05-08T00:08:48.404Z,14.40
2018-05-08T00:11:17.187Z,14.50
2018-05-08T00:13:45.696Z,14.70
2018-05-08T00:16:14.170Z,14.80
2018-05-08T00:18:42.714Z,14.90
2018-05-08T00:21:11.271Z,14.90
2018-05-08T00:23:39.786Z,14.90
2018-05-08T00:26:08.298Z,14.90
2018-05-08T00:28:36.710Z,14.90
2018-05-08T00:31:05.978Z,14.90
2018-05-08T00:33:34.454Z,14.90
2018-05-08T00:36:03.031Z,14.80
2018-05-08T00:38:31.487Z,14.80
2018-05-08T00:40:59.875Z,14.80
2018-05-08T00:43:28.581Z,14.80
2018-05-08T00:45:57.009Z,14.80
2018-05-08T00:48:26.300Z,14.90
2018-05-08T00:50:55.771Z,14.80
2018-05-08T00:53:24.310Z,14.80
2018-05-08T00:55:52.974Z,14.70
2018-05-08T00:58:21.591Z,14.70
2018-05-08T01:00:51.047Z,14.50
2018-05-08T01:03:19.236Z,14.40
2018-05-08T01:05:47.381Z,14.20
2018-05-08T01:08:15.800Z,14.10
2018-05-08T01:10:45.190Z,14.00
2018-05-08T01:13:13.622Z,14.00
2018-05-08T01:15:42.857Z,13.40
2018-05-08T01:18:11.407Z,13.40
2018-05-08T01:20:39.827Z,13.30
2018-05-08T01:23:08.302Z,13.10
2018-05-08T01:25:36.729Z,13.00
2018-05-08T01:28:05.247Z,12.90
2018-05-08T01:30:33.838Z,12.90
2018-05-08T01:33:02.338Z,12.80
2018-05-08T01:35:30.789Z,12.70
2018-05-08T01:37:59.442Z,12.60
2018-05-08T01:40:27.967Z,12.60
2018-05-08T01:42:57.235Z,12.30
2018-05-08T01:45:25.678Z,12.30
2018-05-08T01:47:54.938Z,12.10
2018-05-08T01:50:23.383Z,12.10
2018-05-08T01:52:52.617Z,12.00
2018-05-08T01:55:21.134Z,12.00
2018-05-08T01:57:49.362Z,12.00
2018-05-08T02:00:17.789Z,11.90
2018-05-08T02:02:46.341Z,11.80
2018-05-08T02:05:14.847Z,11.90
2018-05-08T02:07:43.084Z,12.00
2018-05-08T02:10:11.526Z,12.00
2018-05-08T02:12:40.186Z,12.10
2018-05-08T02:15:08.402Z,12.10
2018-05-08T02:17:37.798Z,12.10
2018-05-08T02:20:06.288Z,12.10
2018-05-08T02:22:34.777Z,12.20
2018-05-08T02:25:03.262Z,12.20
2018-05-08T02:27:31.755Z,12.20
2018-05-08T02:30:00.154Z,12.30
2018-05-08T02:32:28.551Z,12.30
2018-05-08T02:34:57.019Z,12.30
2018-05-08T02:37:25.499Z,12.30
2018-05-08T02:39:54.816Z,12.30
2018-05-08T02:42:23.313Z,12.30
2018-05-08T02:44:51.800Z,12.40
2018-05-08T02:47:21.047Z,12.40
2018-05-08T02:49:49.628Z,12.40
2018-05-08T02:52:18.226Z,12.40
2018-05-08T02:54:46.686Z,12.30
2018-05-08T02:57:15.110Z,12.20
2018-05-08T02:59:43.631Z,12.10
2018-05-08T03:02:12.063Z,12.10
2018-05-08T03:04:40.601Z,12.00
2018-05-08T03:07:09.198Z,12.00
2018-05-08T03:09:37.672Z,12.00
2018-05-08T03:12:05.854Z,11.90
2018-05-08T03:14:34.298Z,11.90
2018-05-08T03:17:02.976Z,11.90
2018-05-08T03:19:32.224Z,11.80
2018-05-08T03:22:00.692Z,11.80
2018-05-08T03:24:29.119Z,11.70
2018-05-08T03:26:57.541Z,11.70
2018-05-08T03:29:26.186Z,11.70
2018-05-08T03:31:54.663Z,11.80
2018-05-08T03:34:23.117Z,11.70
2018-05-08T03:36:51.621Z,11.70
2018-05-08T03:39:20.123Z,11.50
2018-05-08T03:41:48.606Z,11.50
2018-05-08T03:44:17.245Z,11.40
2018-05-08T03:46:45.710Z,11.40
2018-05-08T03:49:14.172Z,11.30
2018-05-08T03:51:42.633Z,11.30
2018-05-08T03:54:11.325Z,11.30
2018-05-08T03:56:39.907Z,11.40
2018-05-08T03:59:08.322Z,11.60
2018-05-08T04:01:49.551Z,11.50
2018-05-08T04:04:29.768Z,11.60
2018-05-08T04:07:09.363Z,11.60
2018-05-08T04:09:37.862Z,11.60
2018-05-08T04:12:07.074Z,11.60
2018-05-08T04:14:35.619Z,11.60
2018-05-08T04:17:04.029Z,11.60
2018-05-08T04:19:32.483Z,11.60
2018-05-08T04:22:01.708Z,11.80
2018-05-08T04:24:30.369Z,11.80
2018-05-08T04:26:58.966Z,11.90
2018-05-08T04:29:27.501Z,11.90
2018-05-08T04:31:56.178Z,12.10
2018-05-08T04:34:24.656Z,12.30
2018-05-08T04:36:53.155Z,12.60
2018-05-08T04:39:22.389Z,13.10
2018-05-08T04:41:50.697Z,13.10
2018-05-08T04:44:19.160Z,13.30
2018-05-08T04:46:47.567Z,13.60
2018-05-08T04:49:16.155Z,13.90
2018-05-08T04:51:44.657Z,14.30
2018-05-08T04:54:13.077Z,14.50
2018-05-08T04:56:41.574Z,14.80
2018-05-08T04:59:10.179Z,15.20
2018-05-08T05:01:38.659Z,15.60
2018-05-08T05:04:07.239Z,15.80
2018-05-08T05:06:35.726Z,16.10
2018-05-08T05:09:03.294Z,16.30
2018-05-08T05:11:31.915Z,16.40
2018-05-08T05:14:00.421Z,16.60
2018-05-08T05:19:21.740Z,16.80
2018-05-08T05:21:50.244Z,17.10
2018-05-08T05:24:19.624Z,17.40
2018-05-08T05:26:48.055Z,17.80
2018-05-08T05:29:16.576Z,18.10
2018-05-08T05:31:45.256Z,18.30
2018-05-08T05:34:14.011Z,18.40
2018-05-08T05:36:42.606Z,18.80
2018-05-08T05:39:11.107Z,19.10
2018-05-08T05:41:39.879Z,19.40
2018-05-08T05:44:08.130Z,19.60
2018-05-08T05:46:36.593Z,19.90
2018-05-08T05:49:04.750Z,20.10
2018-05-08T05:51:33.274Z,20.20
2018-05-08T05:54:03.671Z,20.50
2018-05-08T05:56:32.312Z,20.40
2018-05-08T05:59:00.781Z,20.50
2018-05-08T06:01:29.268Z,20.60
2018-05-08T06:03:57.723Z,20.80
2018-05-08T06:06:26.174Z,20.90
2018-05-08T06:08:55.503Z,21.30
2018-05-08T06:11:24.762Z,21.50
2018-05-08T06:13:55.404Z,21.40
2018-05-08T06:16:24.718Z,22.10
2018-05-08T06:18:53.146Z,22.10
2018-05-08T06:21:21.587Z,22.30
2018-05-08T06:23:50.051Z,22.70
2018-05-08T06:26:18.564Z,23.10
2018-05-08T06:28:47.033Z,22.60
2018-05-08T06:31:16.073Z,21.90
2018-05-08T06:33:44.542Z,21.90
2018-05-08T06:36:13.030Z,21.70
2018-05-08T06:38:44.570Z,22.00
2018-05-08T06:41:13.095Z,22.70
2018-05-08T06:43:42.342Z,22.60
2018-05-08T06:46:10.865Z,22.60
2018-05-08T06:48:39.384Z,22.80
2018-05-08T06:51:10.525Z,23.10
2018-05-08T06:53:39.092Z,23.70
2018-05-08T06:56:07.598Z,24.10
2018-05-08T06:58:36.077Z,24.50
2018-05-08T07:01:04.682Z,24.20
2018-05-08T07:03:33.293Z,24.30
2018-05-08T07:06:01.755Z,24.60
2018-05-08T07:08:29.546Z,25.00
2018-05-08T07:11:00.162Z,25.50
2018-05-08T07:13:28.736Z,25.80
2018-05-08T07:15:57.254Z,26.00
2018-05-08T07:18:25.853Z,26.00
2018-05-08T07:20:54.278Z,26.00
2018-05-08T07:23:22.915Z,26.00
2018-05-08T07:25:52.374Z,26.40
2018-05-08T07:28:20.891Z,26.40
2018-05-08T07:30:49.378Z,26.60
2018-05-08T07:33:17.746Z,26.90
2018-05-08T07:35:46.247Z,27.60
2018-05-08T07:38:14.719Z,27.20
2018-05-08T07:40:43.364Z,27.30
2018-05-08T07:43:11.834Z,27.90
2018-05-08T07:45:40.266Z,28.10
2018-05-08T07:48:08.904Z,27.70
2018-05-08T07:50:38.246Z,27.50
2018-05-08T07:53:06.931Z,26.50
2018-05-08T07:55:35.561Z,25.50
2018-05-08T07:58:04.128Z,26.20
2018-05-08T08:00:32.379Z,26.10
2018-05-08T08:03:00.820Z,25.80
2018-05-08T08:05:29.334Z,25.90
2018-05-08T08:07:58.029Z,25.80
2018-05-08T08:10:26.535Z,25.80
2018-05-08T08:12:54.989Z,26.10
2018-05-08T08:15:23.454Z,26.30
2018-05-08T08:17:52.746Z,27.00
2018-05-08T08:20:21.453Z,27.00
2018-05-08T08:22:49.978Z,26.90
2018-05-08T08:25:18.709Z,26.60
2018-05-08T08:27:47.226Z,26.40
2018-05-08T08:30:15.771Z,26.50
2018-05-08T08:32:44.261Z,26.60
2018-05-08T08:35:12.738Z,26.50
2018-05-08T08:37:41.218Z,26.50
2018-05-08T08:45:28.809Z,25.90
2018-05-08T08:47:57.431Z,26.40
2018-05-08T08:50:25.994Z,26.90
2018-05-08T08:52:54.459Z,27.00
2018-05-08T08:55:22.961Z,27.30
2018-05-08T08:57:51.445Z,26.90
2018-05-08T09:00:19.953Z,26.50
2018-05-08T09:02:48.466Z,26.40
2018-05-08T09:05:16.994Z,26.30
2018-05-08T09:07:46.235Z,26.30
2018-05-08T09:10:14.462Z,26.30
2018-05-08T09:12:42.975Z,26.20
2018-05-08T09:15:12.241Z,27.00
2018-05-08T09:17:40.747Z,27.00
2018-05-08T09:20:09.431Z,27.70
2018-05-08T09:22:37.864Z,28.30
2018-05-08T09:25:06.373Z,27.70
2018-05-08T09:27:34.912Z,27.40
2018-05-08T09:30:03.349Z,27.00
2018-05-08T09:32:31.881Z,27.30
2018-05-08T09:35:00.374Z,27.00
2018-05-08T09:40:02.270Z,27.60
2018-05-08T09:42:30.977Z,27.50
2018-05-08T09:44:59.444Z,27.30
2018-05-08T09:47:29.672Z,27.60
2018-05-08T09:49:58.978Z,27.60
2018-05-08T09:52:39.643Z,27.60
2018-05-08T09:55:08.149Z,27.90
2018-05-08T09:57:36.663Z,28.40
2018-05-08T10:00:04.953Z,28.40
2018-05-08T10:02:33.189Z,28.70
2018-05-08T10:05:17.567Z,28.90
2018-05-08T10:07:46.361Z,29.30
2018-05-08T10:10:16.012Z,30.00
2018-05-08T10:12:45.309Z,29.40
2018-05-08T10:15:15.794Z,29.60
2018-05-08T10:17:44.568Z,29.10
2018-05-08T10:20:13.103Z,29.10
2018-05-08T10:22:41.534Z,29.20
2018-05-08T10:25:13.102Z,29.30
2018-05-08T10:30:14.651Z,29.70
2018-05-08T10:32:43.601Z,29.60
2018-05-08T10:35:12.102Z,29.70
2018-05-08T10:40:23.505Z,30.50
2018-05-08T10:42:52.022Z,31.20
2018-05-08T10:45:20.535Z,31.30
2018-05-08T10:47:49.034Z,30.30
2018-05-08T10:52:57.793Z,31.00
2018-05-08T10:55:26.388Z,31.00
2018-05-08T10:57:56.802Z,30.00
2018-05-08T11:00:41.119Z,30.00
2018-05-08T11:03:09.601Z,30.90
2018-05-08T11:05:38.131Z,31.50
2018-05-08T11:08:06.764Z,31.50
2018-05-08T11:10:35.286Z,31.30
2018-05-08T11:13:04.143Z,31.70
2018-05-08T11:15:33.106Z,31.80
2018-05-08T11:18:02.207Z,31.80
2018-05-08T11:20:30.774Z,31.30
2018-05-08T11:25:28.797Z,30.10
2018-05-08T11:27:57.568Z,30.10
2018-05-08T11:30:26.068Z,30.40
2018-05-08T11:32:54.559Z,29.90
2018-05-08T11:35:23.094Z,30.00
2018-05-08T11:37:53.229Z,30.00
2018-05-08T11:40:23.168Z,29.90
2018-05-08T11:45:22.347Z,30.40
2018-05-08T11:47:50.872Z,30.30
2018-05-08T11:50:20.349Z,30.40
2018-05-08T11:52:48.845Z,30.40
2018-05-08T11:55:17.380Z,30.70
2018-05-08T11:57:46.120Z,30.40
2018-05-08T12:00:15.390Z,30.80
2018-05-08T12:02:44.328Z,30.80
2018-05-08T12:05:13.051Z,30.50
2018-05-08T12:07:41.601Z,29.70
2018-05-08T12:10:14.772Z,29.30
2018-05-08T12:12:43.226Z,29.30
2018-05-08T12:15:13.828Z,29.50
2018-05-08T12:17:42.541Z,29.60
2018-05-08T12:20:11.122Z,29.50
2018-05-08T12:22:39.606Z,29.20
2018-05-08T12:25:09.188Z,29.60
2018-05-08T12:27:37.695Z,29.50
2018-05-08T12:30:05.495Z,29.70
2018-05-08T12:32:34.003Z,29.60
2018-05-08T12:35:02.667Z,29.30
2018-05-08T12:37:31.267Z,29.40
2018-05-08T12:39:59.799Z,29.10
2018-05-08T12:42:28.294Z,29.30
2018-05-08T12:44:57.016Z,29.30
2018-05-08T12:47:25.364Z,29.30
2018-05-08T12:49:54.744Z,29.10
2018-05-08T12:52:23.538Z,29.30
2018-05-08T12:54:51.817Z,29.60
2018-05-08T12:57:20.299Z,29.30
2018-05-08T12:59:48.818Z,29.20
2018-05-08T13:02:17.365Z,29.50
2018-05-08T13:04:45.838Z,29.30
2018-05-08T13:09:53.223Z,30.00
2018-05-08T13:12:21.765Z,29.70
2018-05-08T13:14:50.349Z,29.20
2018-05-08T13:17:18.795Z,28.50
2018-05-08T13:19:47.285Z,28.90
2018-05-08T13:22:15.774Z,28.70
2018-05-08T13:24:44.294Z,28.50
2018-05-08T13:27:12.812Z,28.40
2018-05-08T13:29:42.262Z,28.50
2018-05-08T13:32:10.754Z,28.40
2018-05-08T13:34:39.246Z,28.20
2018-05-08T13:37:08.856Z,28.30
2018-05-08T13:39:37.395Z,28.10
2018-05-08T13:42:05.406Z,28.00
2018-05-08T13:44:33.820Z,27.90
2018-05-08T13:47:02.296Z,27.80
2018-05-08T13:49:30.875Z,27.80
2018-05-08T13:51:59.337Z,27.70
2018-05-08T13:54:27.864Z,27.70
2018-05-08T13:56:56.328Z,27.50
2018-05-08T13:59:24.837Z,27.40
2018-05-08T14:01:53.175Z,27.20
2018-05-08T14:04:25.546Z,27.20
2018-05-08T14:06:54.045Z,27.20
2018-05-08T14:09:23.437Z,27.40
2018-05-08T14:11:51.997Z,27.30
2018-05-08T14:14:20.510Z,27.20
2018-05-08T14:16:57.706Z,27.20
2018-05-08T14:19:26.457Z,27.20
2018-05-08T14:21:58.837Z,27.10
2018-05-08T14:24:27.479Z,27.10
2018-05-08T14:26:56.019Z,27.00
2018-05-08T14:29:26.919Z,27.00
2018-05-08T14:31:57.573Z,26.80
2018-05-08T14:34:26.113Z,26.70
2018-05-08T14:36:54.703Z,26.80
2018-05-08T14:39:23.442Z,26.80
2018-05-08T14:41:51.750Z,26.80
2018-05-08T14:44:20.267Z,26.80
2018-05-08T14:46:48.761Z,26.60
2018-05-08T14:49:17.272Z,26.70
2018-05-08T14:51:45.756Z,26.90
2018-05-08T14:54:15.158Z,26.70
2018-05-08T14:56:43.643Z,26.80
2018-05-08T14:59:12.158Z,26.60
2018-05-08T15:01:40.795Z,26.70
2018-05-08T15:04:09.298Z,26.80
2018-05-08T15:06:37.827Z,26.80
2018-05-08T15:09:13.304Z,26.80
2018-05-08T15:11:41.936Z,26.70
2018-05-08T15:14:10.710Z,26.60
2018-05-08T15:16:39.226Z,26.40
2018-05-08T15:19:08.727Z,26.70
2018-05-08T15:21:39.722Z,26.70
2018-05-08T15:24:08.254Z,26.80
2018-05-08T15:26:36.390Z,26.90
2018-05-08T15:29:04.990Z,26.70
2018-05-08T15:31:39.661Z,26.70
2018-05-08T15:34:08.323Z,26.50
2018-05-08T15:36:36.951Z,26.50
2018-05-08T15:39:08.896Z,26.50
2018-05-08T15:41:37.434Z,26.50
2018-05-08T15:44:06.808Z,26.40
2018-05-08T15:46:35.498Z,26.30
2018-05-08T15:49:04.011Z,26.30
2018-05-08T15:51:32.501Z,26.30
2018-05-08T15:57:13.047Z,26.30
2018-05-08T15:59:42.235Z,26.30
2018-05-08T16:02:10.760Z,26.30
2018-05-08T16:04:39.613Z,26.30
2018-05-08T16:07:08.333Z,26.30
2018-05-08T16:09:36.691Z,26.30
2018-05-08T16:12:29.976Z,26.20
2018-05-08T16:14:58.531Z,26.10
2018-05-08T16:17:27.103Z,26.00
2018-05-08T16:19:55.614Z,26.00
2018-05-08T16:22:24.194Z,26.00
2018-05-08T16:24:54.761Z,25.90
2018-05-08T16:27:23.277Z,25.80
2018-05-08T16:29:51.977Z,25.80
2018-05-08T16:32:25.353Z,25.70
2018-05-08T16:34:53.862Z,25.60
2018-05-08T16:37:22.388Z,25.50
2018-05-08T16:39:55.917Z,25.60
2018-05-08T16:42:24.280Z,25.50
2018-05-08T16:44:53.858Z,25.50
2018-05-08T16:47:39.950Z,25.50
2018-05-08T16:50:08.979Z,25.50
2018-05-08T16:52:37.437Z,25.40
2018-05-08T16:55:05.927Z,25.30
2018-05-08T16:57:39.054Z,25.30
2018-05-08T17:00:07.744Z,25.30
2018-05-08T17:02:36.258Z,25.20
2018-05-08T17:05:26.640Z,25.20
2018-05-08T17:10:39.978Z,25.10
2018-05-08T17:13:09.677Z,25.00
2018-05-08T17:15:38.502Z,24.80
2018-05-08T17:18:06.977Z,24.90
2018-05-08T17:20:35.373Z,24.70
2018-05-08T17:23:03.854Z,24.90
2018-05-08T17:25:32.576Z,24.70
2018-05-08T17:28:01.211Z,24.80
2018-05-08T17:30:29.797Z,24.80
2018-05-08T17:32:58.314Z,24.80
2018-05-08T17:35:27.000Z,24.70
2018-05-08T17:37:55.533Z,24.70
2018-05-08T17:40:24.370Z,24.60
2018-05-08T17:42:52.923Z,24.40
2018-05-08T17:45:22.236Z,24.40
2018-05-08T17:47:52.401Z,24.40
2018-05-08T17:50:21.822Z,24.30
2018-05-08T17:52:50.370Z,24.30
2018-05-08T17:55:19.199Z,24.20
2018-05-08T17:57:47.654Z,24.10
2018-05-08T18:00:16.175Z,24.00
2018-05-08T18:02:45.464Z,24.00
2018-05-08T18:05:13.941Z,23.90
2018-05-08T18:07:42.466Z,23.90
2018-05-08T18:10:10.965Z,23.80
2018-05-08T18:12:39.453Z,23.70
2018-05-08T18:15:08.093Z,23.60
2018-05-08T18:17:37.483Z,23.50
2018-05-08T18:20:06.106Z,23.50
2018-05-08T18:22:34.883Z,23.40
2018-05-08T18:25:03.361Z,23.40
2018-05-08T18:27:31.891Z,23.30
2018-05-08T18:30:00.371Z,23.30
2018-05-08T18:32:29.610Z,23.20
2018-05-08T18:34:58.931Z,23.10
2018-05-08T18:37:27.528Z,23.00
2018-05-08T18:39:56.794Z,22.90
2018-05-08T18:42:25.417Z,22.90
2018-05-08T18:44:53.843Z,22.80
2018-05-08T18:47:22.355Z,22.80
2018-05-08T18:49:50.898Z,22.80
2018-05-08T18:52:19.475Z,22.70
2018-05-08T18:54:47.997Z,22.70
2018-05-08T18:57:16.435Z,22.50
2018-05-08T18:59:44.935Z,22.40
2018-05-08T19:02:13.429Z,22.20
2018-05-08T19:04:41.922Z,22.20
2018-05-08T19:07:10.588Z,22.10
2018-05-08T19:09:39.064Z,22.00
2018-05-08T19:12:09.139Z,22.00
2018-05-08T19:14:37.699Z,21.80
2018-05-08T19:17:07.916Z,21.70
2018-05-08T19:19:41.800Z,21.50
2018-05-08T19:22:10.567Z,21.40
2018-05-08T19:24:39.805Z,21.10
2018-05-08T19:27:08.279Z,21.10
2018-05-08T19:29:43.282Z,21.00
2018-05-08T19:32:11.775Z,21.00
2018-05-08T19:34:45.559Z,20.90
2018-05-08T19:37:24.315Z,20.80
2018-05-08T19:39:54.589Z,20.70
2018-05-08T19:42:23.817Z,20.60
2018-05-08T19:44:58.807Z,20.50
2018-05-08T19:47:27.258Z,20.50
2018-05-08T19:49:55.472Z,20.50
2018-05-08T19:52:24.785Z,20.50
2018-05-08T19:54:54.312Z,20.40
2018-05-08T19:57:22.923Z,20.30
2018-05-08T19:59:51.509Z,20.20
2018-05-08T20:02:20.098Z,20.10
2018-05-08T20:04:49.426Z,20.10
2018-05-08T20:07:17.998Z,20.00
2018-05-08T20:09:46.644Z,19.80
2018-05-08T20:12:15.225Z,19.60
2018-05-08T20:14:43.748Z,19.40
2018-05-08T20:17:12.197Z,19.10
2018-05-08T20:19:40.913Z,18.90
2018-05-08T20:22:09.440Z,18.80
2018-05-08T20:24:38.751Z,18.40
2018-05-08T20:27:07.354Z,18.40
2018-05-08T20:29:35.867Z,18.30
2018-05-08T20:32:04.333Z,18.10
2018-05-08T20:34:32.840Z,18.10
2018-05-08T20:37:03.031Z,18.00
2018-05-08T20:39:31.598Z,18.00
2018-05-08T20:42:00.149Z,17.90
2018-05-08T20:47:08.086Z,17.70
2018-05-08T20:52:10.402Z,17.50
2018-05-08T20:54:38.893Z,17.30
2018-05-08T20:57:07.580Z,17.30
2018-05-08T20:59:36.139Z,17.30
2018-05-08T21:02:22.953Z,17.30
2018-05-08T21:04:51.447Z,17.10
2018-05-08T21:07:19.514Z,17.00
2018-05-08T21:09:47.979Z,16.80
2018-05-08T21:12:16.543Z,16.80
2018-05-08T21:14:57.193Z,16.70
2018-05-08T21:20:14.672Z,16.50
2018-05-08T21:22:43.578Z,16.50
2018-05-08T21:25:12.050Z,16.40
2018-05-08T21:27:45.938Z,16.40
2018-05-08T21:30:29.394Z,16.40
2018-05-08T21:33:23.489Z,16.40
2018-05-08T21:38:26.018Z,16.20
2018-05-08T21:47:08.391Z,16.00
2018-05-08T21:49:36.974Z,15.90
2018-05-08T21:52:05.160Z,15.90
2018-05-08T21:54:33.660Z,15.90
2018-05-08T21:57:02.203Z,15.90
2018-05-08T21:59:30.841Z,15.80
2018-05-08T22:02:22.471Z,15.80
2018-05-08T22:04:50.952Z,15.70
2018-05-08T22:07:19.382Z,15.70
2018-05-08T22:09:48.111Z,15.70
2018-05-08T22:12:16.614Z,15.70
2018-05-08T22:14:45.920Z,15.50
2018-05-08T22:20:14.919Z,15.50
2018-05-08T22:22:43.547Z,15.40
2018-05-08T22:25:12.137Z,15.40
2018-05-08T22:27:40.613Z,15.40
2018-05-08T22:30:09.099Z,15.30
2018-05-08T22:32:37.347Z,15.20
2018-05-08T22:35:06.039Z,15.20
2018-05-08T22:37:34.530Z,15.20
2018-05-08T22:40:03.013Z,15.20
2018-05-08T22:45:15.076Z,15.30
2018-05-08T22:47:43.602Z,15.30
2018-05-08T22:50:12.035Z,15.20
2018-05-08T22:52:40.521Z,15.20
2018-05-08T22:55:09.026Z,15.20
2018-05-08T23:00:13.524Z,15.20
2018-05-08T23:02:42.018Z,15.20
2018-05-08T23:05:22.176Z,15.20
2018-05-08T23:07:51.190Z,15.20
2018-05-08T23:10:22.274Z,15.10
2018-05-08T23:12:50.794Z,15.20
2018-05-08T23:15:19.265Z,15.00
2018-05-08T23:17:47.730Z,15.00
2018-05-08T23:20:16.220Z,14.90
2018-05-08T23:22:44.652Z,14.90
2018-05-08T23:25:13.106Z,14.80
2018-05-08T23:27:42.374Z,14.80
2018-05-08T23:30:10.873Z,14.80
2018-05-08T23:32:39.201Z,14.80
2018-05-08T23:35:07.414Z,14.70
2018-05-08T23:37:35.648Z,14.60
2018-05-08T23:40:17.593Z,14.60
2018-05-08T23:42:47.494Z,14.60
2018-05-08T23:45:20.624Z,14.50
2018-05-08T23:47:49.166Z,14.50
2018-05-08T23:50:17.588Z,14.50
2018-05-08T23:52:46.030Z,14.40
2018-05-08T23:55:14.710Z,14.40
2018-05-08T23:57:42.939Z,14.40
